Time;durP1;ratioP1;P1;durP2;ratioP2;P2;SDS_P1;SDS_P2;PMS_P1;PMS_P2;Temp;Humidity;BMP_temperature;BMP_pressure;BME280_temperature;BME280_humidity;BME280_pressure;Samples;Min_cycle;Max_cycle;Signal;HPM_P1;HPM_P2
2023/07/03 00:00:00;;;;;;;10.30;5.57;;;15.00;99.90;;;;;;5051821;28;20764;-72
2023/07/03 00:02:26;;;;;;;7.67;5.27;;;15.00;99.90;;;;;;5054787;28;20163;-72
2023/07/03 00:04:51;;;;;;;13.23;5.67;;;14.90;99.90;;;;;;5053531;28;20178;-73
2023/07/03 00:07:17;;;;;;;10.07;6.60;;;14.90;99.90;;;;;;5054918;28;20185;-71
2023/07/03 00:09:43;;;;;;;13.77;6.10;;;14.90;99.90;;;;;;5054776;28;20194;-72
2023/07/03 00:12:10;;;;;;;9.87;6.87;;;14.90;99.90;;;;;;5054175;28;20639;-72
2023/07/03 00:14:37;;;;;;;18.23;6.83;;;14.80;99.90;;;;;;5053915;28;20262;-70
2023/07/03 00:17:02;;;;;;;12.60;6.20;;;14.80;99.90;;;;;;5054756;28;20543;-71
2023/07/03 00:19:31;;;;;;;12.00;6.97;;;14.70;99.90;;;;;;5054769;28;20190;-71
2023/07/03 00:22:00;;;;;;;11.63;5.70;;;14.70;99.90;;;;;;5053241;28;20171;-70
2023/07/03 00:24:27;;;;;;;13.03;5.70;;;14.70;99.90;;;;;;5054398;28;20608;-71
2023/07/03 00:26:54;;;;;;;40.13;14.33;;;14.60;99.90;;;;;;5054497;28;20193;-70
2023/07/03 00:29:19;;;;;;;7.47;5.70;;;14.60;99.90;;;;;;5054471;28;20174;-71
2023/07/03 00:31:45;;;;;;;9.90;5.43;;;14.50;99.90;;;;;;5054459;28;20170;-71
2023/07/03 00:34:10;;;;;;;11.50;6.10;;;14.50;99.90;;;;;;5053869;28;20554;-71
2023/07/03 00:36:36;;;;;;;11.83;6.43;;;14.50;99.90;;;;;;5054258;28;20175;-70
2023/07/03 00:39:01;;;;;;;9.93;6.60;;;14.40;99.90;;;;;;5054257;28;20198;-71
2023/07/03 00:41:27;;;;;;;9.87;6.10;;;14.40;99.90;;;;;;5054234;28;20337;-71
2023/07/03 00:43:53;;;;;;;10.60;6.17;;;14.30;99.90;;;;;;5053782;28;20171;-71
2023/07/03 00:46:18;;;;;;;14.87;6.07;;;14.30;99.90;;;;;;5054149;28;20232;-71
2023/07/03 00:48:45;;;;;;;9.87;6.47;;;14.30;99.90;;;;;;5053105;28;20202;-70
2023/07/03 00:51:12;;;;;;;13.17;6.10;;;14.30;99.90;;;;;;5054071;28;20289;-71
2023/07/03 00:53:38;;;;;;;14.53;6.33;;;14.20;99.90;;;;;;5053871;28;20174;-70
2023/07/03 00:56:04;;;;;;;10.90;6.37;;;14.20;99.90;;;;;;5053755;28;20812;-71
2023/07/03 00:58:30;;;;;;;12.47;6.20;;;14.10;99.90;;;;;;5053904;28;20202;-70
2023/07/03 01:01:15;;;;;;;11.60;5.83;;;14.10;99.90;;;;;;5052987;28;20289;-71
2023/07/03 01:03:45;;;;;;;10.10;5.23;;;14.10;99.90;;;;;;5053592;28;20173;-70
2023/07/03 01:06:19;;;;;;;12.00;6.00;;;14.10;99.90;;;;;;5053454;28;20186;-70
2023/07/03 01:08:52;;;;;;;10.47;5.40;;;14.00;99.90;;;;;;5052549;28;20347;-71
2023/07/03 01:11:19;;;;;;;16.17;6.20;;;14.00;99.90;;;;;;5053331;28;20201;-71
2023/07/03 01:13:48;;;;;;;17.10;6.23;;;14.00;99.90;;;;;;5052954;28;20183;-71
2023/07/03 01:16:15;;;;;;;16.93;6.70;;;13.90;99.90;;;;;;5052449;28;20183;-71
2023/07/03 01:18:44;;;;;;;14.37;6.17;;;13.90;99.90;;;;;;5053285;28;20681;-71
2023/07/03 01:21:17;;;;;;;14.80;6.67;;;13.90;99.90;;;;;;5053504;28;20222;-71
2023/07/03 01:24:04;;;;;;;12.97;6.17;;;14.00;99.90;;;;;;5053340;28;20400;-71
2023/07/03 01:26:31;;;;;;;12.07;6.93;;;14.00;99.90;;;;;;5053149;28;20201;-71
2023/07/03 01:28:59;;;;;;;14.47;6.37;;;14.00;99.90;;;;;;5053284;28;20235;-70
2023/07/03 01:31:29;;;;;;;14.07;6.63;;;14.00;99.90;;;;;;5053127;28;20206;-70
2023/07/03 01:33:56;;;;;;;17.40;6.87;;;14.00;99.90;;;;;;5052822;28;20178;-70
2023/07/03 01:36:23;;;;;;;17.27;6.40;;;14.00;99.90;;;;;;5053295;28;20674;-70
2023/07/03 01:38:50;;;;;;;10.03;5.47;;;14.00;99.90;;;;;;5053095;28;20210;-71
2023/07/03 01:41:17;;;;;;;10.67;6.43;;;13.90;99.90;;;;;;5053150;28;20210;-71
2023/07/03 01:43:44;;;;;;;14.33;6.17;;;13.90;99.90;;;;;;5052951;28;20268;-70
2023/07/03 01:46:10;;;;;;;12.37;6.00;;;13.90;99.90;;;;;;5052748;28;20178;-70
2023/07/03 01:48:36;;;;;;;14.50;6.77;;;13.90;99.90;;;;;;5052971;28;20217;-71
2023/07/03 01:51:04;;;;;;;12.07;6.23;;;13.90;99.90;;;;;;5053006;28;20280;-71
2023/07/03 01:53:46;;;;;;;9.80;6.67;;;13.90;99.90;;;;;;5052659;28;20254;-71
2023/07/03 01:56:39;;;;;;;18.13;6.33;;;13.80;99.90;;;;;;5052828;28;20681;-71
2023/07/03 01:59:11;;;;;;;13.33;6.30;;;13.80;99.90;;;;;;5050512;28;20770;-70
2023/07/03 02:01:44;;;;;;;16.03;6.97;;;13.70;99.90;;;;;;5052862;28;20167;-70
2023/07/03 02:04:18;;;;;;;14.50;6.90;;;13.60;99.90;;;;;;5067657;28;20178;-71
2023/07/03 02:06:46;;;;;;;15.93;6.30;;;13.60;99.90;;;;;;5052665;28;20225;-71
2023/07/03 02:09:12;;;;;;;12.90;5.97;;;13.60;99.90;;;;;;5052536;28;20228;-70
2023/07/03 02:11:37;;;;;;;11.17;6.10;;;13.50;99.90;;;;;;5052608;28;20174;-71
2023/07/03 02:14:03;;;;;;;8.60;5.70;;;13.50;99.90;;;;;;5051733;28;20602;-71
2023/07/03 02:16:29;;;;;;;8.13;5.93;;;13.50;99.90;;;;;;5052577;28;20185;-71
2023/07/03 02:18:55;;;;;;;14.70;6.67;;;13.40;99.90;;;;;;5052232;28;20199;-70
2023/07/03 02:21:21;;;;;;;17.40;6.47;;;13.40;99.90;;;;;;5052599;28;20190;-70
2023/07/03 02:23:47;;;;;;;12.90;6.27;;;13.40;99.90;;;;;;5050984;28;20262;-71
2023/07/03 02:26:14;;;;;;;8.00;5.67;;;13.40;99.90;;;;;;5051969;28;20692;-71
2023/07/03 02:28:40;;;;;;;12.37;6.17;;;13.40;99.90;;;;;;5052193;28;20210;-71
2023/07/03 02:31:06;;;;;;;15.83;7.10;;;13.40;99.90;;;;;;5052108;28;20225;-71
2023/07/03 02:33:32;;;;;;;16.20;7.10;;;13.40;99.90;;;;;;5051906;28;20665;-70
2023/07/03 02:36:01;;;;;;;17.30;6.43;;;13.40;99.90;;;;;;5052088;28;20198;-71
2023/07/03 02:38:27;;;;;;;16.43;6.47;;;13.40;99.90;;;;;;5052045;28;20576;-71
2023/07/03 02:40:52;;;;;;;10.93;5.80;;;13.40;99.90;;;;;;5051862;28;20194;-71
2023/07/03 02:43:18;;;;;;;11.57;6.57;;;13.50;99.90;;;;;;5051349;28;20656;-71
2023/07/03 02:45:43;;;;;;;16.13;6.30;;;13.50;99.90;;;;;;5051834;28;20182;-71
2023/07/03 02:48:11;;;;;;;12.57;6.60;;;13.50;99.90;;;;;;5051600;28;20265;-71
2023/07/03 02:50:37;;;;;;;16.73;6.53;;;13.50;99.90;;;;;;5050446;28;20210;-71
2023/07/03 02:53:03;;;;;;;21.10;6.37;;;13.50;99.90;;;;;;5051465;28;20166;-70
2023/07/03 02:55:28;;;;;;;10.67;5.50;;;13.60;99.90;;;;;;5051732;28;20245;-71
2023/07/03 02:57:55;;;;;;;16.87;6.87;;;13.60;99.90;;;;;;5051509;28;20245;-71
2023/07/03 03:00:21;;;;;;;21.33;5.83;;;13.70;99.90;;;;;;5051589;28;20249;-71
2023/07/03 03:02:48;;;;;;;11.00;6.03;;;13.70;99.90;;;;;;5051289;28;20169;-71
2023/07/03 03:05:14;;;;;;;14.53;6.60;;;13.80;99.90;;;;;;5051698;28;20208;-70
2023/07/03 03:07:40;;;;;;;14.17;6.60;;;13.80;99.90;;;;;;5051476;28;20673;-71
2023/07/03 03:10:06;;;;;;;14.40;7.27;;;13.90;99.90;;;;;;5050980;28;20210;-71
2023/07/03 03:12:32;;;;;;;12.63;6.07;;;13.90;99.90;;;;;;5051277;28;20258;-70
2023/07/03 03:14:58;;;;;;;14.83;6.80;;;13.90;99.90;;;;;;5051336;28;20640;-71
2023/07/03 03:17:23;;;;;;;10.83;5.97;;;14.00;99.90;;;;;;5051456;28;20202;-72
2023/07/03 03:19:49;;;;;;;13.53;6.57;;;14.10;99.90;;;;;;5051262;28;20198;-70
2023/07/03 03:22:15;;;;;;;12.67;8.93;;;14.10;99.90;;;;;;5051065;28;20171;-71
2023/07/03 03:24:40;;;;;;;10.57;7.03;;;14.10;99.90;;;;;;5049830;28;20182;-70
2023/07/03 03:27:06;;;;;;;14.27;7.37;;;14.10;99.90;;;;;;5051191;28;20668;-71
2023/07/03 03:29:41;;;;;;;10.20;6.43;;;14.10;99.90;;;;;;5051031;28;20569;-71
2023/07/03 03:32:08;;;;;;;15.10;6.73;;;14.10;99.90;;;;;;5051019;28;20649;-70
2023/07/03 03:34:34;;;;;;;10.57;6.47;;;14.20;99.90;;;;;;5049420;28;20641;-73
2023/07/03 03:37:00;;;;;;;20.00;6.70;;;14.20;99.90;;;;;;5050928;28;20170;-71
2023/07/03 03:39:26;;;;;;;12.30;6.17;;;14.20;99.90;;;;;;5051002;28;20174;-70
2023/07/03 03:41:51;;;;;;;16.77;6.47;;;14.20;99.90;;;;;;5051020;28;20177;-71
2023/07/03 03:44:17;;;;;;;11.50;6.10;;;14.20;99.90;;;;;;5050324;28;20178;-71
2023/07/03 03:46:42;;;;;;;17.77;6.87;;;14.20;99.90;;;;;;5051188;28;20577;-71
2023/07/03 03:49:10;;;;;;;15.00;6.00;;;14.20;99.90;;;;;;5051246;28;20186;-71
2023/07/03 03:51:36;;;;;;;11.87;6.13;;;14.20;99.90;;;;;;5051104;28;20171;-71
2023/07/03 03:54:02;;;;;;;9.27;5.67;;;14.20;99.90;;;;;;5050447;28;20171;-71
2023/07/03 03:56:27;;;;;;;14.23;6.60;;;14.30;99.90;;;;;;5049829;28;20186;-71
2023/07/03 03:58:53;;;;;;;14.63;6.70;;;14.30;99.90;;;;;;5050823;28;20271;-71
2023/07/03 04:01:19;;;;;;;12.20;7.00;;;14.40;99.90;;;;;;5050959;28;20214;-71
2023/07/03 04:03:44;;;;;;;26.03;8.00;;;14.40;99.90;;;;;;5050577;28;20193;-70
2023/07/03 04:06:10;;;;;;;10.67;6.13;;;14.40;99.90;;;;;;5050544;28;20175;-72
2023/07/03 04:08:36;;;;;;;9.93;6.23;;;14.40;99.90;;;;;;5050911;28;20186;-71
2023/07/03 04:11:01;;;;;;;14.83;7.47;;;14.40;99.90;;;;;;5050450;28;20283;-71
2023/07/03 04:13:28;;;;;;;12.93;6.13;;;14.40;99.90;;;;;;5049319;28;20225;-71
2023/07/03 04:15:53;;;;;;;16.37;6.70;;;14.40;99.90;;;;;;5050399;28;20183;-71
2023/07/03 04:18:20;;;;;;;17.90;7.30;;;14.40;99.90;;;;;;5050613;28;20215;-72
2023/07/03 04:20:47;;;;;;;19.37;7.47;;;14.50;99.90;;;;;;5050584;28;20270;-71
2023/07/03 04:23:12;;;;;;;10.50;7.43;;;14.50;99.90;;;;;;5050224;28;20171;-71
2023/07/03 04:25:38;;;;;;;16.03;8.17;;;14.60;99.90;;;;;;5050610;28;20171;-71
2023/07/03 04:28:04;;;;;;;12.37;7.50;;;14.60;99.90;;;;;;5050479;28;20193;-71
2023/07/03 04:30:29;;;;;;;15.20;7.30;;;14.70;99.90;;;;;;5050524;28;20398;-71
2023/07/03 04:32:55;;;;;;;19.83;7.83;;;14.80;99.90;;;;;;5050179;28;20183;-71
2023/07/03 04:35:22;;;;;;;20.37;7.30;;;14.80;99.90;;;;;;5050568;28;20643;-71
2023/07/03 04:37:49;;;;;;;12.43;6.50;;;14.80;99.90;;;;;;5050166;28;20199;-71
2023/07/03 04:40:15;;;;;;;18.30;7.50;;;14.90;99.90;;;;;;5050843;28;20302;-71
2023/07/03 04:42:41;;;;;;;12.23;7.27;;;14.90;99.90;;;;;;5048294;28;20543;-72
2023/07/03 04:45:07;;;;;;;9.03;6.30;;;14.90;99.90;;;;;;5050534;28;20183;-70
2023/07/03 04:47:37;;;;;;;9.83;6.20;;;15.00;99.90;;;;;;5052137;28;20186;-71
2023/07/03 04:50:10;;;;;;;20.93;7.30;;;15.00;99.90;;;;;;5054122;28;20202;-70
2023/07/03 04:52:38;;;;;;;19.43;7.67;;;15.00;99.90;;;;;;5054062;28;20297;-71
2023/07/03 04:55:08;;;;;;;31.43;14.37;;;15.00;99.90;;;;;;5053934;28;20240;-71
2023/07/03 04:57:38;;;;;;;13.80;6.50;;;15.00;99.90;;;;;;5054014;28;20213;-71
2023/07/03 05:00:11;;;;;;;17.13;7.57;;;15.10;99.90;;;;;;5053737;28;20302;-71
2023/07/03 05:02:37;;;;;;;10.10;5.90;;;15.10;99.90;;;;;;5053767;28;20531;-71
2023/07/03 05:05:02;;;;;;;14.30;7.00;;;15.10;99.90;;;;;;5053580;28;20262;-71
2023/07/03 05:07:29;;;;;;;14.63;6.53;;;15.20;99.90;;;;;;5052517;28;20559;-71
2023/07/03 05:09:55;;;;;;;17.03;6.93;;;15.20;99.90;;;;;;5053516;28;20186;-72
2023/07/03 05:12:20;;;;;;;17.23;6.53;;;15.20;99.90;;;;;;5052036;28;20248;-71
2023/07/03 05:14:46;;;;;;;17.87;6.93;;;15.30;99.90;;;;;;5053592;28;20175;-70
2023/07/03 05:17:12;;;;;;;19.80;6.87;;;15.30;99.90;;;;;;5052531;28;20677;-71
2023/07/03 05:19:37;;;;;;;21.17;6.90;;;15.40;99.90;;;;;;5053469;28;20191;-71
2023/07/03 05:22:03;;;;;;;10.47;6.77;;;15.50;99.90;;;;;;5053354;28;20186;-71
2023/07/03 05:24:29;;;;;;;14.37;6.70;;;15.60;99.90;;;;;;5053287;28;20182;-71
2023/07/03 05:26:54;;;;;;;14.60;6.93;;;15.80;99.90;;;;;;5053354;28;20167;-71
2023/07/03 05:29:21;;;;;;;19.27;7.07;;;15.80;99.90;;;;;;5053506;28;20175;-71
2023/07/03 05:31:47;;;;;;;18.73;6.50;;;15.90;99.90;;;;;;5052076;28;20262;-71
2023/07/03 05:34:13;;;;;;;19.20;7.70;;;16.00;99.90;;;;;;5052489;28;20236;-72
2023/07/03 05:36:38;;;;;;;9.63;5.73;;;16.10;99.90;;;;;;5053356;28;20652;-71
2023/07/03 05:39:04;;;;;;;10.23;6.43;;;16.10;99.90;;;;;;5053114;28;20218;-71
2023/07/03 05:41:29;;;;;;;14.77;6.77;;;16.10;99.90;;;;;;5051190;28;20214;-72
2023/07/03 05:43:55;;;;;;;12.20;6.63;;;16.20;99.90;;;;;;5052616;28;20278;-71
2023/07/03 05:46:20;;;;;;;16.17;6.73;;;16.30;99.90;;;;;;5051533;28;20278;-71
2023/07/03 05:48:46;;;;;;;14.03;5.93;;;16.30;99.90;;;;;;5051456;28;20568;-71
2023/07/03 05:51:12;;;;;;;16.00;7.50;;;16.40;99.90;;;;;;5053012;28;20206;-72
2023/07/03 05:53:37;;;;;;;15.67;6.70;;;16.30;99.90;;;;;;5051956;28;20191;-70
2023/07/03 05:56:03;;;;;;;13.77;6.67;;;16.30;99.90;;;;;;5052584;28;20717;-72
2023/07/03 05:58:30;;;;;;;11.63;6.60;;;16.30;99.90;;;;;;5052701;28;20261;-71
2023/07/03 06:00:55;;;;;;;58.77;13.13;;;16.40;99.90;;;;;;5052496;28;20195;-71
2023/07/03 06:03:24;;;;;;;14.20;6.77;;;16.40;99.90;;;;;;5052617;28;20174;-71
2023/07/03 06:05:50;;;;;;;14.17;6.67;;;16.40;99.90;;;;;;5052593;28;20174;-71
2023/07/03 06:08:15;;;;;;;12.17;6.17;;;16.50;99.90;;;;;;5052709;28;20531;-71
2023/07/03 06:10:41;;;;;;;20.60;6.70;;;16.50;99.90;;;;;;5051213;28;20307;-71
2023/07/03 06:13:06;;;;;;;75.10;10.03;;;16.50;99.90;;;;;;5052319;28;20182;-72
2023/07/03 06:15:34;;;;;;;21.67;8.30;;;16.60;99.90;;;;;;5051252;28;20638;-71
2023/07/03 06:18:02;;;;;;;14.57;6.60;;;16.70;99.90;;;;;;5052226;28;20268;-71
2023/07/03 06:20:28;;;;;;;12.60;7.20;;;16.80;99.90;;;;;;5052469;28;20277;-70
2023/07/03 06:22:54;;;;;;;12.43;5.93;;;16.80;99.90;;;;;;5052301;28;20175;-70
2023/07/03 06:25:20;;;;;;;14.73;6.27;;;16.70;99.90;;;;;;5052312;28;20174;-71
2023/07/03 06:27:47;;;;;;;14.00;8.50;;;16.70;99.90;;;;;;5052162;28;20175;-71
2023/07/03 06:30:13;;;;;;;14.80;6.33;;;16.80;99.90;;;;;;5066916;28;20210;-71
2023/07/03 06:32:39;;;;;;;10.37;6.17;;;16.80;99.90;;;;;;5050593;28;20640;-71
2023/07/03 06:35:05;;;;;;;90.70;13.70;;;16.90;99.90;;;;;;5051895;28;20182;-71
2023/07/03 06:37:31;;;;;;;13.40;7.27;;;17.00;99.90;;;;;;5051941;28;20199;-71
2023/07/03 06:39:57;;;;;;;24.00;7.33;;;17.20;99.90;;;;;;5051733;28;20274;-72
2023/07/03 06:42:22;;;;;;;19.63;7.00;;;17.20;99.90;;;;;;5051568;28;20604;-72
2023/07/03 06:44:48;;;;;;;20.67;8.23;;;17.50;99.90;;;;;;5051631;28;20592;-72
2023/07/03 06:47:13;;;;;;;20.43;7.83;;;17.70;99.90;;;;;;5051838;28;20205;-70
2023/07/03 06:49:39;;;;;;;13.50;7.40;;;17.90;99.90;;;;;;5051713;28;20192;-72
2023/07/03 06:52:05;;;;;;;14.97;7.90;;;18.00;99.90;;;;;;5051498;28;20178;-74
2023/07/03 06:54:31;;;;;;;19.63;7.70;;;18.00;99.90;;;;;;5051580;28;20764;-71
2023/07/03 06:56:57;;;;;;;18.40;9.17;;;18.00;99.90;;;;;;5051203;28;20553;-70
2023/07/03 06:59:23;;;;;;;19.37;7.63;;;18.20;99.90;;;;;;5049795;28;20206;-71
2023/07/03 07:01:48;;;;;;;14.70;6.53;;;18.30;99.90;;;;;;5052330;28;20589;-71
2023/07/03 07:04:14;;;;;;;15.63;7.07;;;18.40;99.90;;;;;;5050974;28;20456;-72
2023/07/03 07:06:40;;;;;;;16.23;7.07;;;18.40;99.90;;;;;;5051570;28;20555;-71
2023/07/03 07:09:06;;;;;;;104.00;14.63;;;18.40;99.90;;;;;;5050204;28;20182;-71
2023/07/03 07:11:34;;;;;;;14.60;6.10;;;18.30;99.90;;;;;;5049766;28;20198;-70
2023/07/03 07:14:01;;;;;;;13.30;6.47;;;18.20;99.90;;;;;;5051041;28;20174;-71
2023/07/03 07:16:31;;;;;;;21.10;7.13;;;18.20;99.90;;;;;;5051360;28;20179;-71
2023/07/03 07:19:02;;;;;;;16.83;6.53;;;18.60;99.90;;;;;;5050144;28;20256;-72
2023/07/03 07:21:31;;;;;;;12.93;6.80;;;18.90;99.90;;;;;;5049670;28;20202;-70
2023/07/03 07:23:59;;;;;;;15.37;6.33;;;19.20;99.90;;;;;;5050120;28;20210;-72
2023/07/03 07:26:28;;;;;;;8.60;5.37;;;19.60;99.90;;;;;;5051433;28;20653;-71
2023/07/03 07:28:54;;;;;;;13.03;6.73;;;20.00;99.90;;;;;;5051279;28;20199;-72
2023/07/03 07:31:25;;;;;;;16.03;6.50;;;20.20;99.90;;;;;;5051235;28;20237;-72
2023/07/03 07:33:51;;;;;;;10.90;5.93;;;20.50;99.90;;;;;;5050280;28;20210;-70
2023/07/03 07:36:22;;;;;;;11.13;5.97;;;20.50;99.90;;;;;;5051186;28;20186;-72
2023/07/03 07:38:49;;;;;;;11.07;6.25;;;20.70;99.90;;;;;;5050896;28;20210;-71
2023/07/03 07:41:15;;;;;;;10.60;5.35;;;20.40;99.90;;;;;;5051027;28;20202;-71
2023/07/03 07:43:40;;;;;;;11.18;5.70;;;20.50;99.90;;;;;;5050837;28;20543;-71
2023/07/03 07:46:06;;;;;;;12.55;6.18;;;20.70;99.90;;;;;;5050937;28;20175;-71
2023/07/03 07:48:33;;;;;;;10.18;5.00;;;20.80;99.90;;;;;;5050799;28;20191;-71
2023/07/03 07:50:58;;;;;;;10.93;5.45;;;21.00;99.90;;;;;;5050724;28;20253;-70
2023/07/03 07:53:26;;;;;;;21.70;8.00;;;21.50;99.90;;;;;;5050720;28;20174;-71
2023/07/03 07:55:52;;;;;;;7.80;5.03;;;21.70;99.90;;;;;;5050759;28;20171;-71
2023/07/03 07:58:17;;;;;;;17.00;4.93;;;22.20;99.90;;;;;;5050233;28;20205;-70
2023/07/03 08:00:49;;;;;;;9.68;5.07;;;22.40;99.90;;;;;;5050807;28;20669;-71
2023/07/03 08:03:14;;;;;;;293.80;59.47;;;22.30;99.90;;;;;;5050502;28;20305;-71
2023/07/03 08:05:40;;;;;;;18.88;6.55;;;22.00;99.90;;;;;;5051089;28;20185;-70
2023/07/03 08:08:06;;;;;;;207.48;28.58;;;21.80;99.90;;;;;;5050697;28;20167;-70
2023/07/03 08:10:31;;;;;;;94.63;24.05;;;21.70;99.90;;;;;;5049449;28;20272;-71
2023/07/03 08:12:57;;;;;;;10.32;5.20;;;21.40;99.90;;;;;;5052111;28;20178;-71
2023/07/03 08:15:22;;;;;;;92.57;16.40;;;21.30;99.90;;;;;;5054243;28;20476;-71
2023/07/03 08:17:48;;;;;;;12.63;5.10;;;21.60;99.90;;;;;;5053593;28;20252;-71
2023/07/03 08:20:14;;;;;;;241.93;61.55;;;21.60;99.90;;;;;;5053567;28;20202;-72
2023/07/03 08:22:39;;;;;;;513.53;86.80;;;21.70;99.90;;;;;;5053390;28;20203;-72
2023/07/03 08:25:05;;;;;;;11.00;4.53;;;22.00;99.90;;;;;;5057480;28;20197;-71
2023/07/03 08:27:31;;;;;;;119.10;18.52;;;22.10;99.90;;;;;;5073850;28;20175;-70
2023/07/03 08:29:57;;;;;;;6.78;4.53;;;22.60;99.90;;;;;;5057271;28;20191;-71
2023/07/03 08:32:23;;;;;;;316.88;72.75;;;22.70;99.90;;;;;;5055426;28;20522;-71
2023/07/03 08:34:49;;;;;;;23.65;11.52;;;23.00;99.90;;;;;;5054749;28;20171;-71
2023/07/03 08:37:15;;;;;;;10.40;5.68;;;23.00;99.90;;;;;;5054463;28;20171;-71
2023/07/03 08:39:41;;;;;;;8.93;4.60;;;23.00;99.90;;;;;;5054467;28;20207;-70
2023/07/03 08:42:30;;;;;;;13.93;5.60;;;22.60;99.90;;;;;;5054180;28;20167;-71
2023/07/03 08:44:57;;;;;;;29.77;10.13;;;22.40;99.90;;;;;;5054189;28;20171;-70
2023/07/03 08:47:26;;;;;;;14.73;6.88;;;22.40;99.90;;;;;;5054007;28;20195;-71
2023/07/03 08:49:53;;;;;;;518.83;62.28;;;22.20;99.90;;;;;;5054295;28;20230;-70
2023/07/03 08:52:41;;;;;;;100.22;13.70;;;22.00;99.90;;;;;;5053870;28;20163;-70
2023/07/03 08:55:11;;;;;;;22.38;8.88;;;21.70;99.90;;;;;;5050486;28;20205;-71
2023/07/03 08:57:38;;;;;;;7.55;5.20;;;21.60;99.90;;;;;;5053974;28;20260;-70
2023/07/03 09:00:11;;;;;;;32.30;7.72;;;21.50;99.90;;;;;;5041230;28;20282;-69
2023/07/03 09:03:00;;;;;;;11.57;5.55;;;21.50;99.90;;;;;;5033833;28;20647;-71
2023/07/03 09:05:48;;;;;;;10.52;5.03;;;21.50;99.90;;;;;;5032645;28;20180;-71
2023/07/03 09:08:23;;;;;;;9.38;4.43;;;21.60;99.90;;;;;;5033885;28;20175;-72
2023/07/03 09:10:49;;;;;;;14.10;5.63;;;21.50;99.90;;;;;;5033712;28;20242;-72
2023/07/03 09:13:39;;;;;;;11.13;4.68;;;21.30;99.90;;;;;;5032490;28;20187;-70
2023/07/03 09:16:17;;;;;;;10.53;5.20;;;20.90;99.90;;;;;;5037300;28;20182;-71
2023/07/03 09:19:04;;;;;;;70.85;11.85;;;20.50;99.90;;;;;;5053538;28;20298;-71
2023/07/03 09:21:32;;;;;;;8.43;4.50;;;20.40;99.90;;;;;;5052526;28;20727;-71
2023/07/03 09:24:06;;;;;;;10.23;7.70;;;20.30;99.90;;;;;;5053170;28;20174;-70
2023/07/03 09:26:53;;;;;;;8.40;5.03;;;20.30;99.90;;;;;;5053274;28;20241;-71
2023/07/03 09:29:18;;;;;;;6.43;4.80;;;20.30;99.90;;;;;;5053418;28;20256;-71
2023/07/03 09:31:44;;;;;;;5.80;4.53;;;20.20;99.90;;;;;;5053442;28;20862;-71
2023/07/03 09:34:10;;;;;;;14.50;8.40;;;20.40;99.90;;;;;;5052349;28;20178;-70
2023/07/03 09:36:39;;;;;;;9.00;4.55;;;20.40;99.90;;;;;;5051978;28;20186;-70
2023/07/03 09:39:11;;;;;;;7.83;4.47;;;20.40;99.90;;;;;;5051548;28;20213;-72
2023/07/03 09:41:37;;;;;;;39.67;14.73;;;20.60;99.90;;;;;;5053179;28;20171;-72
2023/07/03 09:44:22;;;;;;;8.27;4.53;;;20.70;99.90;;;;;;5051312;28;20535;-71
2023/07/03 09:46:48;;;;;;;6.70;6.00;;;20.90;99.90;;;;;;5053654;28;20167;-71
2023/07/03 09:49:24;;;;;;;9.18;4.72;;;20.90;99.90;;;;;;5053307;28;20547;-71
2023/07/03 09:51:51;;;;;;;7.03;5.47;;;21.10;99.90;;;;;;5051965;28;20531;-71
2023/07/03 09:54:21;;;;;;;30.80;13.00;;;21.00;99.90;;;;;;5053671;28;20179;-72
2023/07/03 09:56:49;;;;;;;9.60;4.15;;;21.00;99.90;;;;;;5052896;28;20181;-72
2023/07/03 09:59:17;;;;;;;18.67;12.43;;;21.00;99.90;;;;;;5051394;28;20207;-71
2023/07/03 10:01:43;;;;;;;22.10;7.83;;;21.00;99.90;;;;;;5051395;28;20516;-70
2023/07/03 10:04:14;;;;;;;11.00;4.90;;;20.90;99.90;;;;;;5052296;28;20657;-71
2023/07/03 10:06:52;;;;;;;38.25;6.80;;;20.80;99.90;;;;;;5050692;28;20194;-70
2023/07/03 10:09:25;;;;;;;7.87;4.50;;;20.70;99.90;;;;;;5051082;28;20178;-71
2023/07/03 10:12:26;;;;;;;868.60;147.60;;;20.70;99.90;;;;;;5051286;28;20560;-70
2023/07/03 10:15:18;;;;;;;7.90;4.93;;;20.40;99.90;;;;;;5052440;28;20547;-72
2023/07/03 10:18:05;;;;;;;7.82;6.10;;;20.20;99.90;;;;;;5052675;28;20209;-72
2023/07/03 10:20:36;;;;;;;12.57;6.10;;;20.30;99.90;;;;;;5052373;28;20186;-72
2023/07/03 10:23:07;;;;;;;23.50;6.30;;;20.20;99.90;;;;;;5051987;28;20186;-71
2023/07/03 10:25:38;;;;;;;32.70;7.90;;;20.10;99.90;;;;;;5052460;28;20166;-72
2023/07/03 10:28:08;;;;;;;9.50;4.50;;;20.00;99.90;;;;;;5051312;28;20184;-72
2023/07/03 10:30:39;;;;;;;7.67;4.97;;;20.10;99.90;;;;;;5052028;28;20187;-72
2023/07/03 10:33:11;;;;;;;8.27;4.50;;;20.30;99.90;;;;;;5052212;28;20178;-70
2023/07/03 10:35:40;;;;;;;275.58;46.22;;;20.60;99.90;;;;;;5052382;28;20167;-72
2023/07/03 10:38:18;;;;;;;8.35;5.10;;;20.50;99.90;;;;;;5051700;28;20198;-72
2023/07/03 10:40:55;;;;;;;10.27;5.20;;;20.50;99.90;;;;;;5052180;28;20187;-72
2023/07/03 10:43:23;;;;;;;11.95;5.03;;;20.80;99.90;;;;;;5052144;28;20265;-72
2023/07/03 10:45:48;;;;;;;7.00;5.35;;;21.30;99.90;;;;;;5051358;28;20202;-73
2023/07/03 10:48:28;;;;;;;8.23;4.35;;;21.90;99.90;;;;;;5052103;28;20210;-72
2023/07/03 10:50:59;;;;;;;7.60;4.32;;;22.50;99.90;;;;;;5052083;28;20222;-72
2023/07/03 10:53:32;;;;;;;11.93;4.57;;;23.10;99.90;;;;;;5052490;28;20238;-72
2023/07/03 10:56:25;;;;;;;9.80;4.20;;;23.30;99.90;;;;;;5051847;28;20253;-72
2023/07/03 10:59:05;;;;;;;8.55;4.45;;;23.50;99.90;;;;;;5051814;28;20199;-72
2023/07/03 11:01:48;;;;;;;12.15;5.05;;;23.10;99.90;;;;;;5052013;28;20716;-72
2023/07/03 11:04:35;;;;;;;7.43;4.50;;;22.90;99.90;;;;;;5051768;28;20202;-72
2023/07/03 11:07:04;;;;;;;8.48;4.65;;;22.50;99.90;;;;;;5050498;28;20171;-72
2023/07/03 11:09:34;;;;;;;7.32;4.40;;;22.20;99.90;;;;;;5051574;28;20614;-72
2023/07/03 11:12:03;;;;;;;9.75;4.90;;;21.90;99.90;;;;;;5051274;28;20170;-72
2023/07/03 11:14:59;;;;;;;6.28;4.30;;;21.60;99.90;;;;;;5049123;28;20186;-73
2023/07/03 11:17:52;;;;;;;11.07;4.97;;;21.40;99.90;;;;;;5042087;28;20195;-72
2023/07/03 11:20:45;;;;;;;14.30;5.15;;;21.90;99.90;;;;;;5051075;28;20198;-72
2023/07/03 11:23:26;;;;;;;9.90;4.25;;;22.40;99.90;;;;;;5023129;28;20209;-72
2023/07/03 11:25:57;;;;;;;7.75;6.43;;;23.00;99.90;;;;;;5066826;28;20185;-72
2023/07/03 11:28:35;;;;;;;9.63;4.28;;;23.40;99.90;;;;;;5051137;28;20208;-72
2023/07/03 11:31:02;;;;;;;6.43;4.85;;;23.70;99.90;;;;;;5051201;28;20202;-72
2023/07/03 11:33:29;;;;;;;18.23;6.93;;;24.20;99.90;;;;;;5050850;28;20220;-71
2023/07/03 11:35:57;;;;;;;8.55;4.90;;;24.40;99.90;;;;;;5051281;28;20210;-72
2023/07/03 11:38:23;;;;;;;7.00;4.95;;;24.10;99.90;;;;;;5051048;28;20206;-72
2023/07/03 11:40:55;;;;;;;6.25;4.60;;;23.70;99.90;;;;;;5050968;28;20261;-72
2023/07/03 11:43:32;;;;;;;12.10;5.30;;;23.30;99.90;;;;;;5050809;28;20171;-72
2023/07/03 11:45:57;;;;;;;9.48;5.13;;;23.20;99.90;;;;;;5049645;28;20174;-72
2023/07/03 11:48:29;;;;;;;18.88;7.70;;;23.20;99.90;;;;;;5049536;28;20191;-72
2023/07/03 11:51:01;;;;;;;12.90;5.85;;;23.20;99.90;;;;;;5049201;28;20194;-71
2023/07/03 11:53:36;;;;;;;329.13;89.13;;;23.00;99.90;;;;;;5050930;28;20707;-71
2023/07/03 11:56:03;;;;;;;12.30;5.28;;;22.90;99.90;;;;;;5050607;28;20178;-71
2023/07/03 11:58:32;;;;;;;11.40;5.10;;;23.00;99.90;;;;;;5054799;28;20214;-70
2023/07/03 12:01:20;;;;;;;13.18;5.00;;;23.50;99.90;;;;;;5054631;28;20203;-71
2023/07/03 12:03:59;;;;;;;9.55;6.18;;;23.70;99.90;;;;;;5054827;28;20166;-70
2023/07/03 12:06:42;;;;;;;94.60;25.85;;;24.00;99.90;;;;;;5070350;28;20170;-71
2023/07/03 12:09:22;;;;;;;20.05;8.35;;;23.80;99.90;;;;;;5054901;28;20171;-71
2023/07/03 12:12:00;;;;;;;100.15;37.63;;;23.20;99.90;;;;;;5054691;28;20167;-71
2023/07/03 12:17:23;;;;;;;9.27;5.15;;;23.20;99.90;;;;;;5054707;28;20235;-71
2023/07/03 12:19:52;;;;;;;5.45;4.15;;;23.30;99.90;;;;;;5070126;28;20207;-70
2023/07/03 12:22:21;;;;;;;5.20;4.40;;;23.30;99.90;;;;;;5054880;28;20167;-70
2023/07/03 12:24:47;;;;;;;10.13;5.93;;;23.10;99.90;;;;;;5053149;28;20177;-71
2023/07/03 12:27:14;;;;;;;8.23;4.70;;;23.20;99.90;;;;;;5054572;28;20609;-71
2023/07/03 12:29:47;;;;;;;14.82;6.47;;;23.20;99.90;;;;;;5054229;28;20201;-71
2023/07/03 12:32:26;;;;;;;193.75;36.72;;;23.00;99.90;;;;;;5054477;28;20280;-72
2023/07/03 12:34:52;;;;;;;68.97;16.90;;;22.90;99.90;;;;;;5054575;28;20666;-72
2023/07/03 12:37:21;;;;;;;14.50;5.13;;;23.00;99.90;;;;;;5054411;28;20171;-72
2023/07/03 12:39:48;;;;;;;9.90;4.75;;;23.50;99.90;;;;;;5053129;28;20195;-72
2023/07/03 12:42:24;;;;;;;10.18;5.30;;;23.90;99.90;;;;;;5069788;28;20232;-71
2023/07/03 12:44:52;;;;;;;31.73;7.07;;;24.10;99.90;;;;;;5054493;28;20167;-70
2023/07/03 12:47:19;;;;;;;6.88;4.70;;;23.70;99.90;;;;;;5054126;28;20665;-71
2023/07/03 12:49:58;;;;;;;17.90;11.73;;;23.40;99.90;;;;;;5052991;28;20300;-71